createdAt,value
2023-01-26T00:04:51.599Z,-0.11
2023-01-26T00:09:58.902Z,-0.14
2023-01-26T00:15:07.086Z,-0.19
2023-01-26T00:20:16.275Z,-0.24
2023-01-26T00:25:24.083Z,-0.28
2023-01-26T00:30:31.780Z,-0.26
2023-01-26T00:35:39.438Z,-0.23
2023-01-26T00:40:47.111Z,-0.20
2023-01-26T00:45:54.761Z,-0.19
2023-01-26T00:51:01.816Z,-0.19
2023-01-26T00:56:08.567Z,-0.23
2023-01-26T01:01:16.122Z,-0.24
2023-01-26T01:06:24.566Z,-0.25
2023-01-26T01:11:31.869Z,-0.27
2023-01-26T01:20:18.648Z,-0.22
2023-01-26T01:25:32.556Z,-0.22
2023-01-26T01:30:44.151Z,-0.24
2023-01-26T01:41:26.982Z,-0.26
2023-01-26T01:46:40.234Z,-0.26
2023-01-26T01:58:22.588Z,-0.19
2023-01-26T02:09:30.112Z,-0.24
2023-01-26T02:20:22.147Z,-0.19
2023-01-26T02:25:41.549Z,-0.25
2023-01-26T02:30:50.084Z,-0.35
2023-01-26T02:45:57.003Z,-0.28
2023-01-26T02:51:04.933Z,-0.26
2023-01-26T02:56:12.823Z,-0.34
2023-01-26T03:17:16.777Z,-0.32
2023-01-26T03:23:12.522Z,-0.30
2023-01-26T03:28:40.642Z,-0.29
2023-01-26T03:35:00.143Z,-0.24
2023-01-26T03:40:32.542Z,-0.27
2023-01-26T03:59:59.975Z,-0.26
2023-01-26T04:05:28.891Z,-0.29
2023-01-26T04:10:39.952Z,-0.37
2023-01-26T04:16:09.047Z,-0.44
2023-01-26T04:21:30.843Z,-0.49
2023-01-26T04:26:48.791Z,-0.53
2023-01-26T04:38:03.011Z,-0.43
2023-01-26T04:43:34.785Z,-0.48
2023-01-26T04:48:49.773Z,-0.52
2023-01-26T04:54:16.742Z,-0.57
2023-01-26T04:59:38.757Z,-0.64
2023-01-26T05:05:27.659Z,-0.65
2023-01-26T05:16:15.790Z,-0.64
2023-01-26T05:21:41.346Z,-0.66
2023-01-26T05:27:19.024Z,-0.65
2023-01-26T05:32:27.858Z,-0.65
2023-01-26T05:37:37.088Z,-0.65
2023-01-26T05:48:46.030Z,-0.52
2023-01-26T05:54:16.292Z,-0.48
2023-01-26T05:59:49.411Z,-0.47
2023-01-26T06:05:08.468Z,-0.48
2023-01-26T06:10:19.763Z,-0.49
2023-01-26T06:21:28.220Z,-0.45
2023-01-26T06:26:38.796Z,-0.42
2023-01-26T06:31:44.844Z,-0.42
2023-01-26T06:46:54.829Z,-0.65
2023-01-26T06:52:20.679Z,-0.75
2023-01-26T06:57:28.317Z,-0.80
2023-01-26T07:02:35.493Z,-0.78
2023-01-26T07:07:43.617Z,-0.80
2023-01-26T07:12:50.946Z,-0.86
2023-01-26T07:18:00.906Z,-0.90
2023-01-26T07:23:08.040Z,-0.86
2023-01-26T07:28:15.902Z,-0.78
2023-01-26T07:33:23.536Z,-0.76
2023-01-26T07:38:32.400Z,-0.76
2023-01-26T07:43:41.476Z,-0.75
2023-01-26T07:48:48.907Z,-0.73
2023-01-26T07:53:56.481Z,-0.71
2023-01-26T07:59:03.985Z,-0.65
2023-01-26T08:04:12.675Z,-0.61
2023-01-26T08:09:19.965Z,-0.63
2023-01-26T08:14:38.155Z,-0.63
2023-01-26T08:19:52.711Z,-0.63
2023-01-26T08:25:00.134Z,-0.64
2023-01-26T08:30:10.365Z,-0.70
2023-01-26T08:35:18.474Z,-0.73
2023-01-26T08:40:26.138Z,-0.67
2023-01-26T08:45:34.033Z,-0.59
2023-01-26T08:50:41.847Z,-0.53
2023-01-26T08:55:49.149Z,-0.49
2023-01-26T09:00:56.628Z,-0.49
2023-01-26T09:06:05.625Z,-0.48
2023-01-26T09:11:16.680Z,-0.52
2023-01-26T09:16:24.397Z,-0.50
2023-01-26T09:21:31.776Z,-0.47
2023-01-26T09:26:38.249Z,-0.42
2023-01-26T09:31:46.468Z,-0.42
2023-01-26T09:36:53.702Z,-0.41
2023-01-26T09:42:04.443Z,-0.46
2023-01-26T09:47:22.708Z,-0.44
2023-01-26T09:52:34.651Z,-0.41
2023-01-26T09:57:49.400Z,-0.40
2023-01-26T10:03:12.774Z,-0.37
2023-01-26T10:08:23.503Z,-0.31
2023-01-26T10:19:18.862Z,-0.30
2023-01-26T10:24:26.748Z,-0.34
2023-01-26T10:29:34.534Z,-0.33
2023-01-26T10:34:45.433Z,-0.34
2023-01-26T10:40:13.914Z,-0.34
2023-01-26T10:45:31.603Z,-0.36
2023-01-26T10:50:39.351Z,-0.35
2023-01-26T10:55:59.197Z,-0.31
2023-01-26T11:01:12.750Z,-0.23
2023-01-26T11:06:28.943Z,-0.20
2023-01-26T11:11:36.581Z,-0.19
2023-01-26T11:21:32.163Z,-0.13
2023-01-26T11:27:12.926Z,-0.12
2023-01-26T11:32:31.915Z,-0.12
2023-01-26T11:37:48.990Z,-0.12
2023-01-26T11:43:08.874Z,-0.11
2023-01-26T11:48:30.684Z,-0.10
2023-01-26T11:54:05.937Z,-0.12
2023-01-26T11:59:18.762Z,-0.12
2023-01-26T12:04:26.057Z,-0.11
2023-01-26T12:09:37.448Z,-0.11
2023-01-26T12:14:51.218Z,-0.11
2023-01-26T12:20:07.573Z,-0.12
2023-01-26T12:25:30.506Z,-0.13
2023-01-26T12:30:44.567Z,-0.11
2023-01-26T12:36:06.269Z,-0.07
2023-01-26T12:41:20.643Z,-0.00
2023-01-26T12:46:32.316Z,0.04
2023-01-26T12:51:46.955Z,0.06
2023-01-26T12:56:58.034Z,0.07
2023-01-26T13:02:21.720Z,0.08
2023-01-26T13:07:38.281Z,0.08
2023-01-26T13:12:50.650Z,0.10
2023-01-26T13:18:04.572Z,0.11
2023-01-26T13:23:47.606Z,0.07
2023-01-26T13:29:15.430Z,0.01
2023-01-26T13:34:28.777Z,0.04
2023-01-26T13:39:39.636Z,0.07
2023-01-26T13:44:52.903Z,0.08
2023-01-26T13:50:00.692Z,0.06
2023-01-26T13:55:23.999Z,0.04
2023-01-26T14:00:31.712Z,0.00
2023-01-26T14:05:39.344Z,-0.03
2023-01-26T14:10:47.927Z,-0.07
2023-01-26T14:16:05.259Z,-0.11
2023-01-26T14:21:21.093Z,-0.10
2023-01-26T14:26:33.831Z,-0.08
2023-01-26T14:31:43.098Z,-0.07
2023-01-26T14:36:50.947Z,-0.12
2023-01-26T14:41:59.667Z,-0.19
2023-01-26T14:47:14.090Z,-0.22
2023-01-26T14:52:25.686Z,-0.26
2023-01-26T14:57:34.452Z,-0.31
2023-01-26T15:02:48.294Z,-0.40
2023-01-26T15:07:58.967Z,-0.44
2023-01-26T15:13:18.849Z,-0.45
2023-01-26T15:18:34.293Z,-0.47
2023-01-26T15:23:45.537Z,-0.45
2023-01-26T15:28:56.129Z,-0.45
2023-01-26T15:34:04.195Z,-0.46
2023-01-26T15:39:19.167Z,-0.48
2023-01-26T15:44:26.425Z,-0.50
2023-01-26T15:49:33.765Z,-0.54
2023-01-26T15:54:39.197Z,-0.57
2023-01-26T15:59:46.973Z,-0.62
2023-01-26T16:04:54.308Z,-0.69
2023-01-26T16:10:02.000Z,-0.73
2023-01-26T16:15:34.635Z,-0.72
2023-01-26T16:20:45.924Z,-0.69
2023-01-26T16:25:54.331Z,-0.68
2023-01-26T16:31:03.065Z,-0.70
2023-01-26T16:36:13.213Z,-0.73
2023-01-26T16:41:26.410Z,-0.77
2023-01-26T16:46:34.188Z,-0.80
2023-01-26T16:51:43.130Z,-0.81
2023-01-26T16:56:50.743Z,-0.78
2023-01-26T17:01:58.442Z,-0.79
2023-01-26T17:07:06.207Z,-0.81
2023-01-26T17:12:14.401Z,-0.85
2023-01-26T17:17:21.771Z,-0.82
2023-01-26T17:22:30.162Z,-0.85
2023-01-26T17:27:38.195Z,-0.84
2023-01-26T17:32:46.447Z,-0.81
2023-01-26T17:37:53.540Z,-0.79
2023-01-26T17:42:59.505Z,-0.80
2023-01-26T17:48:07.072Z,-0.80
2023-01-26T17:53:14.143Z,-0.82
2023-01-26T17:58:21.606Z,-0.83
2023-01-26T18:03:28.975Z,-0.85
2023-01-26T18:08:37.702Z,-0.86
2023-01-26T18:13:46.056Z,-0.83
2023-01-26T18:18:57.339Z,-0.82
2023-01-26T18:24:06.501Z,-0.86
2023-01-26T18:29:14.934Z,-0.84
2023-01-26T18:34:22.283Z,-0.84
2023-01-26T18:39:30.750Z,-0.84
2023-01-26T18:44:38.108Z,-0.87
2023-01-26T18:49:46.138Z,-0.89
2023-01-26T18:54:53.889Z,-0.94
2023-01-26T19:00:01.192Z,-0.96
2023-01-26T19:05:10.477Z,-0.92
2023-01-26T19:10:19.497Z,-0.89
2023-01-26T19:15:26.778Z,-0.88
2023-01-26T19:20:32.302Z,-0.88
2023-01-26T19:25:40.416Z,-0.88
2023-01-26T19:30:48.504Z,-0.91
2023-01-26T19:35:56.281Z,-0.94
2023-01-26T19:41:04.401Z,-0.92
2023-01-26T19:46:13.009Z,-0.92
2023-01-26T19:51:22.265Z,-0.90
2023-01-26T19:56:32.518Z,-0.92
2023-01-26T20:01:40.339Z,-0.94
2023-01-26T20:06:51.380Z,-0.96
2023-01-26T20:11:59.449Z,-0.97
2023-01-26T20:17:07.082Z,-1.00
2023-01-26T20:22:15.287Z,-1.01
2023-01-26T20:27:23.099Z,-1.03
2023-01-26T20:32:30.620Z,-1.01
2023-01-26T20:37:39.144Z,-0.97
2023-01-26T20:42:46.738Z,-0.94
2023-01-26T20:47:54.807Z,-0.94
2023-01-26T20:53:02.183Z,-0.98
2023-01-26T20:58:09.477Z,-1.04
2023-01-26T21:03:20.005Z,-1.08
2023-01-26T21:08:27.720Z,-1.09
2023-01-26T21:13:34.928Z,-1.10
2023-01-26T21:18:41.605Z,-1.06
2023-01-26T21:23:49.824Z,-1.01
2023-01-26T21:28:59.825Z,-0.99
2023-01-26T21:34:07.633Z,-0.99
2023-01-26T21:39:16.842Z,-0.99
2023-01-26T21:44:26.450Z,-1.01
2023-01-26T21:49:39.581Z,-0.99
2023-01-26T21:54:47.095Z,-0.95
2023-01-26T21:59:54.316Z,-0.91
2023-01-26T22:05:01.913Z,-0.90
2023-01-26T22:10:11.988Z,-0.90
2023-01-26T22:15:20.249Z,-0.89
2023-01-26T22:20:27.558Z,-0.90
2023-01-26T22:25:37.542Z,-0.90
2023-01-26T22:30:44.873Z,-0.91
2023-01-26T22:35:59.947Z,-0.90
2023-01-26T22:41:08.271Z,-0.95
2023-01-26T22:46:16.191Z,-0.99
2023-01-26T22:51:25.644Z,-1.01
2023-01-26T22:56:32.957Z,-1.06
2023-01-26T23:01:38.523Z,-1.08
2023-01-26T23:06:46.027Z,-1.11
2023-01-26T23:11:53.215Z,-1.16
2023-01-26T23:16:58.886Z,-1.16
2023-01-26T23:22:06.699Z,-1.14
2023-01-26T23:27:15.293Z,-1.13
2023-01-26T23:32:22.674Z,-1.10
2023-01-26T23:37:29.935Z,-1.08
2023-01-26T23:42:55.805Z,-1.08
2023-01-26T23:48:05.450Z,-1.10
2023-01-26T23:53:13.292Z,-1.12
2023-01-26T23:58:20.662Z,-1.12
